sensor_id;sensor_type;location;lat;lon;timestamp;temperature;humidity
35692;DHT22;26978;44.830;-0.674;2023-04-24T00:02:23;12.20;99.90
35692;DHT22;26978;44.830;-0.674;2023-04-24T00:04:49;12.20;99.90
35692;DHT22;26978;44.830;-0.674;2023-04-24T00:07:15;12.20;99.90
35692;DHT22;26978;44.830;-0.674;2023-04-24T00:09:42;12.30;99.90
35692;DHT22;26978;44.830;-0.674;2023-04-24T00:12:09;12.20;99.90
35692;DHT22;26978;44.830;-0.674;2023-04-24T00:14:35;12.20;99.90
35692;DHT22;26978;44.830;-0.674;2023-04-24T00:17:01;12.20;99.90
35692;DHT22;26978;44.830;-0.674;2023-04-24T00:19:28;12.10;99.90
35692;DHT22;26978;44.830;-0.674;2023-04-24T00:21:54;12.10;99.90
35692;DHT22;26978;44.830;-0.674;2023-04-24T00:24:20;12.10;99.90
35692;DHT22;26978;44.830;-0.674;2023-04-24T00:26:46;12.10;99.90
35692;DHT22;26978;44.830;-0.674;2023-04-24T00:29:12;12.10;99.90
35692;DHT22;26978;44.830;-0.674;2023-04-24T00:31:38;12.10;99.90
35692;DHT22;26978;44.830;-0.674;2023-04-24T00:34:04;12.00;99.90
35692;DHT22;26978;44.830;-0.674;2023-04-24T00:36:31;12.00;99.90
35692;DHT22;26978;44.830;-0.674;2023-04-24T00:38:57;12.00;99.90
35692;DHT22;26978;44.830;-0.674;2023-04-24T00:41:24;11.90;99.90
35692;DHT22;26978;44.830;-0.674;2023-04-24T00:43:51;11.90;99.90
35692;DHT22;26978;44.830;-0.674;2023-04-24T00:46:17;11.80;99.90
35692;DHT22;26978;44.830;-0.674;2023-04-24T00:48:43;11.70;99.90
35692;DHT22;26978;44.830;-0.674;2023-04-24T00:51:09;11.70;99.90
35692;DHT22;26978;44.830;-0.674;2023-04-24T00:53:35;11.80;99.90
35692;DHT22;26978;44.830;-0.674;2023-04-24T00:56:01;11.70;99.90
35692;DHT22;26978;44.830;-0.674;2023-04-24T00:58:28;11.60;99.90
35692;DHT22;26978;44.830;-0.674;2023-04-24T01:00:54;11.70;99.90
35692;DHT22;26978;44.830;-0.674;2023-04-24T01:03:22;11.70;99.90
35692;DHT22;26978;44.830;-0.674;2023-04-24T01:05:50;11.70;99.90
35692;DHT22;26978;44.830;-0.674;2023-04-24T01:08:16;11.70;99.90
35692;DHT22;26978;44.830;-0.674;2023-04-24T01:10:44;11.70;99.90
35692;DHT22;26978;44.830;-0.674;2023-04-24T01:13:10;11.70;99.90
35692;DHT22;26978;44.830;-0.674;2023-04-24T01:15:36;11.60;99.90
35692;DHT22;26978;44.830;-0.674;2023-04-24T01:18:02;11.60;99.90
35692;DHT22;26978;44.830;-0.674;2023-04-24T01:20:28;11.50;99.90
35692;DHT22;26978;44.830;-0.674;2023-04-24T01:22:55;11.60;99.90
35692;DHT22;26978;44.830;-0.674;2023-04-24T01:25:22;11.50;99.90
35692;DHT22;26978;44.830;-0.674;2023-04-24T01:27:48;11.40;99.90
35692;DHT22;26978;44.830;-0.674;2023-04-24T01:30:14;11.30;99.90
35692;DHT22;26978;44.830;-0.674;2023-04-24T01:32:40;11.30;99.90
35692;DHT22;26978;44.830;-0.674;2023-04-24T01:35:09;11.30;99.90
35692;DHT22;26978;44.830;-0.674;2023-04-24T01:37:35;11.20;99.90
35692;DHT22;26978;44.830;-0.674;2023-04-24T01:40:04;11.20;99.90
35692;DHT22;26978;44.830;-0.674;2023-04-24T01:42:30;11.20;99.90
35692;DHT22;26978;44.830;-0.674;2023-04-24T01:44:57;11.30;99.90
35692;DHT22;26978;44.830;-0.674;2023-04-24T01:47:23;11.20;99.90
35692;DHT22;26978;44.830;-0.674;2023-04-24T01:49:49;11.10;99.90
35692;DHT22;26978;44.830;-0.674;2023-04-24T01:52:15;11.20;99.90
35692;DHT22;26978;44.830;-0.674;2023-04-24T01:54:41;11.10;99.90
35692;DHT22;26978;44.830;-0.674;2023-04-24T01:57:07;11.20;99.90
35692;DHT22;26978;44.830;-0.674;2023-04-24T01:59:34;11.20;99.90
35692;DHT22;26978;44.830;-0.674;2023-04-24T02:02:04;11.10;99.90
35692;DHT22;26978;44.830;-0.674;2023-04-24T02:04:30;11.10;99.90
35692;DHT22;26978;44.830;-0.674;2023-04-24T02:06:55;11.00;99.90
35692;DHT22;26978;44.830;-0.674;2023-04-24T02:09:21;10.90;99.90
35692;DHT22;26978;44.830;-0.674;2023-04-24T02:11:47;10.90;99.90
35692;DHT22;26978;44.830;-0.674;2023-04-24T02:14:12;10.90;99.90
35692;DHT22;26978;44.830;-0.674;2023-04-24T02:16:39;10.90;99.90
35692;DHT22;26978;44.830;-0.674;2023-04-24T02:19:04;10.80;99.90
35692;DHT22;26978;44.830;-0.674;2023-04-24T02:21:30;10.70;99.90
35692;DHT22;26978;44.830;-0.674;2023-04-24T02:23:59;10.60;99.90
35692;DHT22;26978;44.830;-0.674;2023-04-24T02:26:24;10.60;99.90
35692;DHT22;26978;44.830;-0.674;2023-04-24T02:28:50;10.60;99.90
35692;DHT22;26978;44.830;-0.674;2023-04-24T02:31:16;10.70;99.90
35692;DHT22;26978;44.830;-0.674;2023-04-24T02:33:42;10.70;99.90
35692;DHT22;26978;44.830;-0.674;2023-04-24T02:36:07;10.60;99.90
35692;DHT22;26978;44.830;-0.674;2023-04-24T02:38:33;10.60;99.90
35692;DHT22;26978;44.830;-0.674;2023-04-24T02:40:58;10.50;99.90
35692;DHT22;26978;44.830;-0.674;2023-04-24T02:43:26;10.50;99.90
35692;DHT22;26978;44.830;-0.674;2023-04-24T02:45:51;10.40;99.90
35692;DHT22;26978;44.830;-0.674;2023-04-24T02:48:17;10.30;99.90
35692;DHT22;26978;44.830;-0.674;2023-04-24T02:50:42;10.30;99.90
35692;DHT22;26978;44.830;-0.674;2023-04-24T02:53:08;10.30;99.90
35692;DHT22;26978;44.830;-0.674;2023-04-24T02:55:34;10.30;99.90
35692;DHT22;26978;44.830;-0.674;2023-04-24T02:57:59;10.30;99.90
35692;DHT22;26978;44.830;-0.674;2023-04-24T03:00:25;10.20;99.90
35692;DHT22;26978;44.830;-0.674;2023-04-24T03:02:51;10.20;99.90
35692;DHT22;26978;44.830;-0.674;2023-04-24T03:05:16;10.30;99.90
35692;DHT22;26978;44.830;-0.674;2023-04-24T03:07:42;10.20;99.90
35692;DHT22;26978;44.830;-0.674;2023-04-24T03:10:08;10.20;99.90
35692;DHT22;26978;44.830;-0.674;2023-04-24T03:12:33;10.10;99.90
35692;DHT22;26978;44.830;-0.674;2023-04-24T03:14:59;10.00;99.90
35692;DHT22;26978;44.830;-0.674;2023-04-24T03:17:25;10.00;99.90
35692;DHT22;26978;44.830;-0.674;2023-04-24T03:19:50;9.90;99.90
35692;DHT22;26978;44.830;-0.674;2023-04-24T03:22:16;9.80;99.90
35692;DHT22;26978;44.830;-0.674;2023-04-24T03:24:42;9.80;99.90
35692;DHT22;26978;44.830;-0.674;2023-04-24T03:27:07;9.70;99.90
35692;DHT22;26978;44.830;-0.674;2023-04-24T03:29:33;9.60;99.90
35692;DHT22;26978;44.830;-0.674;2023-04-24T03:31:59;9.50;99.90
35692;DHT22;26978;44.830;-0.674;2023-04-24T03:34:24;9.50;99.90
35692;DHT22;26978;44.830;-0.674;2023-04-24T03:36:50;9.50;99.90
35692;DHT22;26978;44.830;-0.674;2023-04-24T03:39:16;9.70;99.90
35692;DHT22;26978;44.830;-0.674;2023-04-24T03:41:41;9.70;99.90
35692;DHT22;26978;44.830;-0.674;2023-04-24T03:44:07;9.70;99.90
35692;DHT22;26978;44.830;-0.674;2023-04-24T03:46:33;9.70;99.90
35692;DHT22;26978;44.830;-0.674;2023-04-24T03:48:58;9.60;99.90
35692;DHT22;26978;44.830;-0.674;2023-04-24T03:51:24;9.60;99.90
35692;DHT22;26978;44.830;-0.674;2023-04-24T03:53:50;9.70;99.90
35692;DHT22;26978;44.830;-0.674;2023-04-24T03:56:16;9.70;99.90
35692;DHT22;26978;44.830;-0.674;2023-04-24T03:58:42;9.80;99.90
35692;DHT22;26978;44.830;-0.674;2023-04-24T04:01:08;9.90;99.90
35692;DHT22;26978;44.830;-0.674;2023-04-24T04:03:34;9.90;99.90
35692;DHT22;26978;44.830;-0.674;2023-04-24T04:05:59;9.90;99.90
35692;DHT22;26978;44.830;-0.674;2023-04-24T04:08:25;9.90;99.90
35692;DHT22;26978;44.830;-0.674;2023-04-24T04:10:51;10.00;99.90
35692;DHT22;26978;44.830;-0.674;2023-04-24T04:13:16;10.00;99.90
35692;DHT22;26978;44.830;-0.674;2023-04-24T04:15:42;10.10;99.90
35692;DHT22;26978;44.830;-0.674;2023-04-24T04:18:07;10.20;99.90
35692;DHT22;26978;44.830;-0.674;2023-04-24T04:20:34;10.30;99.90
35692;DHT22;26978;44.830;-0.674;2023-04-24T04:22:59;10.30;99.90
35692;DHT22;26978;44.830;-0.674;2023-04-24T04:25:25;10.30;99.90
35692;DHT22;26978;44.830;-0.674;2023-04-24T04:27:51;10.40;99.90
35692;DHT22;26978;44.830;-0.674;2023-04-24T04:30:17;10.40;99.90
35692;DHT22;26978;44.830;-0.674;2023-04-24T04:32:43;10.50;99.90
35692;DHT22;26978;44.830;-0.674;2023-04-24T04:35:09;10.50;99.90
35692;DHT22;26978;44.830;-0.674;2023-04-24T04:37:35;10.50;99.90
35692;DHT22;26978;44.830;-0.674;2023-04-24T04:40:01;10.50;99.90
35692;DHT22;26978;44.830;-0.674;2023-04-24T04:42:31;10.50;99.90
35692;DHT22;26978;44.830;-0.674;2023-04-24T04:44:58;10.60;99.90
35692;DHT22;26978;44.830;-0.674;2023-04-24T04:47:23;10.60;99.90
35692;DHT22;26978;44.830;-0.674;2023-04-24T04:49:49;10.60;99.90
35692;DHT22;26978;44.830;-0.674;2023-04-24T04:52:17;10.60;99.90
35692;DHT22;26978;44.830;-0.674;2023-04-24T04:54:43;10.60;99.90
35692;DHT22;26978;44.830;-0.674;2023-04-24T04:57:08;10.70;99.90
35692;DHT22;26978;44.830;-0.674;2023-04-24T04:59:34;10.70;99.90
35692;DHT22;26978;44.830;-0.674;2023-04-24T05:02:00;10.70;99.90
35692;DHT22;26978;44.830;-0.674;2023-04-24T05:04:26;10.70;99.90
35692;DHT22;26978;44.830;-0.674;2023-04-24T05:06:52;10.70;99.90
35692;DHT22;26978;44.830;-0.674;2023-04-24T05:09:18;10.70;99.90
35692;DHT22;26978;44.830;-0.674;2023-04-24T05:11:45;10.80;99.90
35692;DHT22;26978;44.830;-0.674;2023-04-24T05:14:10;10.70;99.90
35692;DHT22;26978;44.830;-0.674;2023-04-24T05:16:38;10.70;99.90
35692;DHT22;26978;44.830;-0.674;2023-04-24T05:19:04;10.70;99.90
35692;DHT22;26978;44.830;-0.674;2023-04-24T05:21:30;10.60;99.90
35692;DHT22;26978;44.830;-0.674;2023-04-24T05:23:56;10.60;99.90
35692;DHT22;26978;44.830;-0.674;2023-04-24T05:26:22;10.50;99.90
35692;DHT22;26978;44.830;-0.674;2023-04-24T05:28:48;10.50;99.90
35692;DHT22;26978;44.830;-0.674;2023-04-24T05:31:13;10.40;99.90
35692;DHT22;26978;44.830;-0.674;2023-04-24T05:33:39;10.40;99.90
35692;DHT22;26978;44.830;-0.674;2023-04-24T05:36:06;10.40;99.90
35692;DHT22;26978;44.830;-0.674;2023-04-24T05:38:32;10.30;99.90
35692;DHT22;26978;44.830;-0.674;2023-04-24T05:40:57;10.40;99.90
35692;DHT22;26978;44.830;-0.674;2023-04-24T05:43:23;10.40;99.90
35692;DHT22;26978;44.830;-0.674;2023-04-24T05:45:49;10.40;99.90
35692;DHT22;26978;44.830;-0.674;2023-04-24T05:48:14;10.40;99.90
35692;DHT22;26978;44.830;-0.674;2023-04-24T05:50:40;10.50;99.90
35692;DHT22;26978;44.830;-0.674;2023-04-24T05:53:06;10.50;99.90
35692;DHT22;26978;44.830;-0.674;2023-04-24T05:55:32;10.50;99.90
35692;DHT22;26978;44.830;-0.674;2023-04-24T05:57:58;10.60;99.90
35692;DHT22;26978;44.830;-0.674;2023-04-24T06:00:25;10.60;99.90
35692;DHT22;26978;44.830;-0.674;2023-04-24T06:02:51;10.70;99.90
35692;DHT22;26978;44.830;-0.674;2023-04-24T06:05:18;10.70;99.90
35692;DHT22;26978;44.830;-0.674;2023-04-24T06:07:44;10.80;99.90
35692;DHT22;26978;44.830;-0.674;2023-04-24T06:10:10;10.80;99.90
35692;DHT22;26978;44.830;-0.674;2023-04-24T06:12:36;10.80;99.90
35692;DHT22;26978;44.830;-0.674;2023-04-24T06:15:03;10.80;99.90
35692;DHT22;26978;44.830;-0.674;2023-04-24T06:17:29;10.80;99.90
35692;DHT22;26978;44.830;-0.674;2023-04-24T06:19:55;10.90;99.90
35692;DHT22;26978;44.830;-0.674;2023-04-24T06:22:21;10.90;99.90
35692;DHT22;26978;44.830;-0.674;2023-04-24T06:24:47;10.90;99.90
35692;DHT22;26978;44.830;-0.674;2023-04-24T06:27:13;10.90;99.90
35692;DHT22;26978;44.830;-0.674;2023-04-24T06:29:39;10.80;99.90
35692;DHT22;26978;44.830;-0.674;2023-04-24T06:32:05;10.80;99.90
35692;DHT22;26978;44.830;-0.674;2023-04-24T06:34:30;10.80;99.90
35692;DHT22;26978;44.830;-0.674;2023-04-24T06:36:58;10.80;99.90
35692;DHT22;26978;44.830;-0.674;2023-04-24T06:39:23;10.80;99.90
35692;DHT22;26978;44.830;-0.674;2023-04-24T06:41:49;10.80;99.90
35692;DHT22;26978;44.830;-0.674;2023-04-24T06:44:15;10.80;99.90
35692;DHT22;26978;44.830;-0.674;2023-04-24T06:46:41;10.80;99.90
35692;DHT22;26978;44.830;-0.674;2023-04-24T06:49:06;10.90;99.90
35692;DHT22;26978;44.830;-0.674;2023-04-24T06:51:32;11.00;99.90
35692;DHT22;26978;44.830;-0.674;2023-04-24T06:53:58;11.20;99.90
35692;DHT22;26978;44.830;-0.674;2023-04-24T06:56:25;11.20;99.90
35692;DHT22;26978;44.830;-0.674;2023-04-24T06:58:51;11.30;99.90
35692;DHT22;26978;44.830;-0.674;2023-04-24T07:01:17;11.40;99.90
35692;DHT22;26978;44.830;-0.674;2023-04-24T07:03:43;11.40;99.90
35692;DHT22;26978;44.830;-0.674;2023-04-24T07:06:09;11.50;99.90
35692;DHT22;26978;44.830;-0.674;2023-04-24T07:08:36;11.60;99.90
35692;DHT22;26978;44.830;-0.674;2023-04-24T07:11:03;11.80;99.90
35692;DHT22;26978;44.830;-0.674;2023-04-24T07:13:28;11.90;99.90
35692;DHT22;26978;44.830;-0.674;2023-04-24T07:15:54;11.90;99.90
35692;DHT22;26978;44.830;-0.674;2023-04-24T07:18:21;12.00;99.90
35692;DHT22;26978;44.830;-0.674;2023-04-24T07:20:47;12.00;99.90
35692;DHT22;26978;44.830;-0.674;2023-04-24T07:23:15;12.10;99.90
35692;DHT22;26978;44.830;-0.674;2023-04-24T07:25:41;12.20;99.90
35692;DHT22;26978;44.830;-0.674;2023-04-24T07:28:07;12.30;99.90
35692;DHT22;26978;44.830;-0.674;2023-04-24T07:30:33;12.40;99.90
35692;DHT22;26978;44.830;-0.674;2023-04-24T07:32:59;12.50;99.90
35692;DHT22;26978;44.830;-0.674;2023-04-24T07:35:26;12.60;99.90
35692;DHT22;26978;44.830;-0.674;2023-04-24T07:37:55;12.50;99.90
35692;DHT22;26978;44.830;-0.674;2023-04-24T07:40:21;12.50;99.90
35692;DHT22;26978;44.830;-0.674;2023-04-24T07:42:47;12.50;99.90
35692;DHT22;26978;44.830;-0.674;2023-04-24T07:45:16;12.50;99.90
35692;DHT22;26978;44.830;-0.674;2023-04-24T07:47:42;12.50;99.90
35692;DHT22;26978;44.830;-0.674;2023-04-24T07:50:12;12.50;99.90
35692;DHT22;26978;44.830;-0.674;2023-04-24T07:52:38;12.50;99.90
35692;DHT22;26978;44.830;-0.674;2023-04-24T07:55:04;12.70;99.90
35692;DHT22;26978;44.830;-0.674;2023-04-24T07:57:30;12.80;99.90
35692;DHT22;26978;44.830;-0.674;2023-04-24T07:59:56;12.80;99.90
35692;DHT22;26978;44.830;-0.674;2023-04-24T08:02:22;12.90;99.90
35692;DHT22;26978;44.830;-0.674;2023-04-24T08:04:52;13.10;99.90
35692;DHT22;26978;44.830;-0.674;2023-04-24T08:07:19;13.30;99.90
35692;DHT22;26978;44.830;-0.674;2023-04-24T08:09:45;13.40;99.90
35692;DHT22;26978;44.830;-0.674;2023-04-24T08:12:10;13.50;99.90
35692;DHT22;26978;44.830;-0.674;2023-04-24T08:14:36;13.70;99.90
35692;DHT22;26978;44.830;-0.674;2023-04-24T08:17:02;14.00;99.90
35692;DHT22;26978;44.830;-0.674;2023-04-24T08:19:28;14.20;99.90
35692;DHT22;26978;44.830;-0.674;2023-04-24T08:21:54;14.20;99.90
35692;DHT22;26978;44.830;-0.674;2023-04-24T08:24:20;14.20;99.90
35692;DHT22;26978;44.830;-0.674;2023-04-24T08:26:46;14.30;99.90
35692;DHT22;26978;44.830;-0.674;2023-04-24T08:29:11;14.40;99.90
35692;DHT22;26978;44.830;-0.674;2023-04-24T08:31:37;14.60;99.90
35692;DHT22;26978;44.830;-0.674;2023-04-24T08:34:03;14.80;99.90
35692;DHT22;26978;44.830;-0.674;2023-04-24T08:36:28;15.00;99.90
35692;DHT22;26978;44.830;-0.674;2023-04-24T08:38:55;15.10;99.90
35692;DHT22;26978;44.830;-0.674;2023-04-24T08:41:21;15.20;99.90
35692;DHT22;26978;44.830;-0.674;2023-04-24T08:43:50;15.30;99.90
35692;DHT22;26978;44.830;-0.674;2023-04-24T08:46:16;15.30;99.90
35692;DHT22;26978;44.830;-0.674;2023-04-24T08:48:44;15.10;99.90
35692;DHT22;26978;44.830;-0.674;2023-04-24T08:51:10;15.20;99.90
35692;DHT22;26978;44.830;-0.674;2023-04-24T08:53:37;15.20;99.90
35692;DHT22;26978;44.830;-0.674;2023-04-24T08:56:03;15.20;99.90
35692;DHT22;26978;44.830;-0.674;2023-04-24T08:58:29;15.00;99.90
35692;DHT22;26978;44.830;-0.674;2023-04-24T09:00:55;14.70;99.90
35692;DHT22;26978;44.830;-0.674;2023-04-24T09:03:22;14.70;99.90
35692;DHT22;26978;44.830;-0.674;2023-04-24T09:05:48;14.70;99.90
35692;DHT22;26978;44.830;-0.674;2023-04-24T09:08:17;14.70;99.90
35692;DHT22;26978;44.830;-0.674;2023-04-24T09:10:44;14.80;99.90
35692;DHT22;26978;44.830;-0.674;2023-04-24T09:13:10;14.90;99.90
35692;DHT22;26978;44.830;-0.674;2023-04-24T09:15:37;15.00;99.90
35692;DHT22;26978;44.830;-0.674;2023-04-24T09:18:03;15.10;99.90
35692;DHT22;26978;44.830;-0.674;2023-04-24T09:20:29;15.20;99.90
35692;DHT22;26978;44.830;-0.674;2023-04-24T09:22:57;15.40;99.90
35692;DHT22;26978;44.830;-0.674;2023-04-24T09:25:31;15.50;99.90
35692;DHT22;26978;44.830;-0.674;2023-04-24T09:28:03;15.60;99.90
35692;DHT22;26978;44.830;-0.674;2023-04-24T09:30:30;15.80;99.90
35692;DHT22;26978;44.830;-0.674;2023-04-24T09:33:15;15.70;99.90
35692;DHT22;26978;44.830;-0.674;2023-04-24T09:35:41;15.50;99.90
35692;DHT22;26978;44.830;-0.674;2023-04-24T09:38:08;15.60;99.90
35692;DHT22;26978;44.830;-0.674;2023-04-24T09:40:34;15.70;99.90
35692;DHT22;26978;44.830;-0.674;2023-04-24T09:43:01;15.60;99.90
35692;DHT22;26978;44.830;-0.674;2023-04-24T09:45:35;15.60;99.90
35692;DHT22;26978;44.830;-0.674;2023-04-24T09:48:00;15.50;99.90
35692;DHT22;26978;44.830;-0.674;2023-04-24T09:50:26;15.30;99.90
35692;DHT22;26978;44.830;-0.674;2023-04-24T09:53:01;15.20;99.90
35692;DHT22;26978;44.830;-0.674;2023-04-24T09:55:27;15.10;99.90
35692;DHT22;26978;44.830;-0.674;2023-04-24T09:57:59;15.00;99.90
35692;DHT22;26978;44.830;-0.674;2023-04-24T10:00:30;14.90;99.90
35692;DHT22;26978;44.830;-0.674;2023-04-24T10:03:00;15.00;99.90
35692;DHT22;26978;44.830;-0.674;2023-04-24T10:05:33;15.10;99.90
35692;DHT22;26978;44.830;-0.674;2023-04-24T10:08:09;15.40;99.90
35692;DHT22;26978;44.830;-0.674;2023-04-24T10:10:37;15.60;99.90
35692;DHT22;26978;44.830;-0.674;2023-04-24T10:13:04;15.80;99.90
35692;DHT22;26978;44.830;-0.674;2023-04-24T10:15:30;15.90;99.90
35692;DHT22;26978;44.830;-0.674;2023-04-24T10:17:58;16.10;99.90
35692;DHT22;26978;44.830;-0.674;2023-04-24T10:20:26;16.30;99.90
35692;DHT22;26978;44.830;-0.674;2023-04-24T10:22:53;16.50;99.90
35692;DHT22;26978;44.830;-0.674;2023-04-24T10:25:31;16.90;99.90
35692;DHT22;26978;44.830;-0.674;2023-04-24T10:27:58;16.90;99.90
35692;DHT22;26978;44.830;-0.674;2023-04-24T10:30:31;17.10;99.90
35692;DHT22;26978;44.830;-0.674;2023-04-24T10:33:04;17.10;99.90
35692;DHT22;26978;44.830;-0.674;2023-04-24T10:35:35;17.10;99.90
35692;DHT22;26978;44.830;-0.674;2023-04-24T10:38:05;16.80;99.90
35692;DHT22;26978;44.830;-0.674;2023-04-24T10:41:09;16.60;99.90
35692;DHT22;26978;44.830;-0.674;2023-04-24T10:51:03;17.00;99.90
35692;DHT22;26978;44.830;-0.674;2023-04-24T10:53:30;17.00;99.90
35692;DHT22;26978;44.830;-0.674;2023-04-24T10:56:02;16.80;99.90
35692;DHT22;26978;44.830;-0.674;2023-04-24T10:58:50;16.80;99.90
35692;DHT22;26978;44.830;-0.674;2023-04-24T11:01:30;17.00;99.90
35692;DHT22;26978;44.830;-0.674;2023-04-24T11:04:01;16.80;99.90
35692;DHT22;26978;44.830;-0.674;2023-04-24T11:06:35;16.60;99.90
35692;DHT22;26978;44.830;-0.674;2023-04-24T11:09:06;16.40;99.90
35692;DHT22;26978;44.830;-0.674;2023-04-24T11:11:33;16.10;99.90
35692;DHT22;26978;44.830;-0.674;2023-04-24T11:17:01;16.10;99.90
35692;DHT22;26978;44.830;-0.674;2023-04-24T11:19:27;16.10;99.90
35692;DHT22;26978;44.830;-0.674;2023-04-24T11:27:20;16.30;99.90
35692;DHT22;26978;44.830;-0.674;2023-04-24T11:32:18;16.30;99.90
35692;DHT22;26978;44.830;-0.674;2023-04-24T11:34:56;16.20;99.90
35692;DHT22;26978;44.830;-0.674;2023-04-24T11:37:23;16.50;99.90
35692;DHT22;26978;44.830;-0.674;2023-04-24T11:39:58;16.70;99.90
35692;DHT22;26978;44.830;-0.674;2023-04-24T11:42:25;17.20;99.90
35692;DHT22;26978;44.830;-0.674;2023-04-24T11:44:55;17.60;99.90
35692;DHT22;26978;44.830;-0.674;2023-04-24T11:47:33;18.00;99.90
35692;DHT22;26978;44.830;-0.674;2023-04-24T11:49:59;17.80;99.90
35692;DHT22;26978;44.830;-0.674;2023-04-24T11:52:26;17.70;99.90
35692;DHT22;26978;44.830;-0.674;2023-04-24T11:54:52;17.50;99.90
35692;DHT22;26978;44.830;-0.674;2023-04-24T11:57:22;17.30;99.90
35692;DHT22;26978;44.830;-0.674;2023-04-24T11:59:49;17.20;99.90
35692;DHT22;26978;44.830;-0.674;2023-04-24T12:02:25;17.20;99.90
35692;DHT22;26978;44.830;-0.674;2023-04-24T12:04:53;17.20;99.90
35692;DHT22;26978;44.830;-0.674;2023-04-24T12:07:19;17.20;99.90
35692;DHT22;26978;44.830;-0.674;2023-04-24T12:09:48;17.40;99.90
35692;DHT22;26978;44.830;-0.674;2023-04-24T12:12:15;17.60;99.90
35692;DHT22;26978;44.830;-0.674;2023-04-24T12:14:48;17.70;99.90
35692;DHT22;26978;44.830;-0.674;2023-04-24T12:17:15;17.90;99.90
35692;DHT22;26978;44.830;-0.674;2023-04-24T12:19:48;18.10;99.90
35692;DHT22;26978;44.830;-0.674;2023-04-24T12:22:14;18.00;99.90
35692;DHT22;26978;44.830;-0.674;2023-04-24T12:25:02;18.10;99.90
35692;DHT22;26978;44.830;-0.674;2023-04-24T12:27:33;18.00;99.90
35692;DHT22;26978;44.830;-0.674;2023-04-24T12:30:00;17.50;99.90
35692;DHT22;26978;44.830;-0.674;2023-04-24T12:32:26;17.40;99.90
35692;DHT22;26978;44.830;-0.674;2023-04-24T12:34:53;17.40;99.90
35692;DHT22;26978;44.830;-0.674;2023-04-24T12:37:19;17.30;99.90
35692;DHT22;26978;44.830;-0.674;2023-04-24T12:42:34;17.80;99.90
35692;DHT22;26978;44.830;-0.674;2023-04-24T12:45:05;17.80;99.90
35692;DHT22;26978;44.830;-0.674;2023-04-24T12:47:37;18.00;99.90
35692;DHT22;26978;44.830;-0.674;2023-04-24T12:50:03;18.30;99.90
35692;DHT22;26978;44.830;-0.674;2023-04-24T12:52:30;18.60;99.90
35692;DHT22;26978;44.830;-0.674;2023-04-24T12:54:57;18.60;99.90
35692;DHT22;26978;44.830;-0.674;2023-04-24T12:57:24;18.60;99.90
35692;DHT22;26978;44.830;-0.674;2023-04-24T12:59:53;18.50;99.90
35692;DHT22;26978;44.830;-0.674;2023-04-24T13:02:18;18.50;99.90
35692;DHT22;26978;44.830;-0.674;2023-04-24T13:04:45;18.40;99.90
35692;DHT22;26978;44.830;-0.674;2023-04-24T13:07:12;18.70;99.90
35692;DHT22;26978;44.830;-0.674;2023-04-24T13:09:39;19.20;99.90
35692;DHT22;26978;44.830;-0.674;2023-04-24T13:12:05;19.50;99.90
35692;DHT22;26978;44.830;-0.674;2023-04-24T13:14:31;20.00;99.90
35692;DHT22;26978;44.830;-0.674;2023-04-24T13:16:57;19.30;99.90
35692;DHT22;26978;44.830;-0.674;2023-04-24T13:19:25;18.90;99.90
35692;DHT22;26978;44.830;-0.674;2023-04-24T13:21:51;18.70;99.90
35692;DHT22;26978;44.830;-0.674;2023-04-24T13:24:17;18.80;99.90
35692;DHT22;26978;44.830;-0.674;2023-04-24T13:26:46;18.80;99.90
35692;DHT22;26978;44.830;-0.674;2023-04-24T13:29:12;18.70;99.90
35692;DHT22;26978;44.830;-0.674;2023-04-24T13:31:37;18.60;99.90
35692;DHT22;26978;44.830;-0.674;2023-04-24T13:34:03;18.90;99.90
35692;DHT22;26978;44.830;-0.674;2023-04-24T13:36:29;19.00;99.90
35692;DHT22;26978;44.830;-0.674;2023-04-24T13:38:55;19.80;99.90
35692;DHT22;26978;44.830;-0.674;2023-04-24T13:41:21;19.70;99.90
35692;DHT22;26978;44.830;-0.674;2023-04-24T13:43:50;19.70;99.90
35692;DHT22;26978;44.830;-0.674;2023-04-24T13:46:16;19.50;99.90
35692;DHT22;26978;44.830;-0.674;2023-04-24T13:48:42;18.90;99.90
35692;DHT22;26978;44.830;-0.674;2023-04-24T13:51:07;18.40;99.90
35692;DHT22;26978;44.830;-0.674;2023-04-24T13:53:33;18.40;99.90
35692;DHT22;26978;44.830;-0.674;2023-04-24T13:56:04;18.40;99.90
35692;DHT22;26978;44.830;-0.674;2023-04-24T13:58:30;19.00;99.90
35692;DHT22;26978;44.830;-0.674;2023-04-24T14:00:56;19.30;99.90
35692;DHT22;26978;44.830;-0.674;2023-04-24T14:03:21;19.10;99.90
35692;DHT22;26978;44.830;-0.674;2023-04-24T14:05:47;19.20;99.90
35692;DHT22;26978;44.830;-0.674;2023-04-24T14:08:12;19.20;99.90
35692;DHT22;26978;44.830;-0.674;2023-04-24T14:10:38;19.30;99.90
35692;DHT22;26978;44.830;-0.674;2023-04-24T14:13:04;20.20;99.90
35692;DHT22;26978;44.830;-0.674;2023-04-24T14:15:29;20.80;98.40
35692;DHT22;26978;44.830;-0.674;2023-04-24T14:17:55;21.30;96.00
35692;DHT22;26978;44.830;-0.674;2023-04-24T14:20:21;21.10;97.50
35692;DHT22;26978;44.830;-0.674;2023-04-24T14:22:47;20.70;96.50
35692;DHT22;26978;44.830;-0.674;2023-04-24T14:25:12;20.20;98.70
35692;DHT22;26978;44.830;-0.674;2023-04-24T14:27:38;20.90;95.70
35692;DHT22;26978;44.830;-0.674;2023-04-24T14:30:04;21.00;97.40
35692;DHT22;26978;44.830;-0.674;2023-04-24T14:32:31;21.40;95.10
35692;DHT22;26978;44.830;-0.674;2023-04-24T14:34:56;22.10;93.20
35692;DHT22;26978;44.830;-0.674;2023-04-24T14:37:22;21.70;92.50
35692;DHT22;26978;44.830;-0.674;2023-04-24T14:39:48;21.50;94.00
35692;DHT22;26978;44.830;-0.674;2023-04-24T14:42:13;20.90;93.00
35692;DHT22;26978;44.830;-0.674;2023-04-24T14:44:39;21.00;95.50
35692;DHT22;26978;44.830;-0.674;2023-04-24T14:47:05;20.80;94.50
35692;DHT22;26978;44.830;-0.674;2023-04-24T14:49:31;20.50;95.70
35692;DHT22;26978;44.830;-0.674;2023-04-24T14:51:56;20.00;97.00
35692;DHT22;26978;44.830;-0.674;2023-04-24T14:54:22;19.70;97.70
35692;DHT22;26978;44.830;-0.674;2023-04-24T14:56:49;19.30;98.80
35692;DHT22;26978;44.830;-0.674;2023-04-24T14:59:15;18.90;99.70
35692;DHT22;26978;44.830;-0.674;2023-04-24T15:01:40;18.50;99.90
35692;DHT22;26978;44.830;-0.674;2023-04-24T15:04:07;19.20;99.90
35692;DHT22;26978;44.830;-0.674;2023-04-24T15:06:33;19.70;99.90
35692;DHT22;26978;44.830;-0.674;2023-04-24T15:08:59;19.90;99.90
35692;DHT22;26978;44.830;-0.674;2023-04-24T15:11:25;19.60;98.30
35692;DHT22;26978;44.830;-0.674;2023-04-24T15:13:51;19.30;99.90
35692;DHT22;26978;44.830;-0.674;2023-04-24T15:16:17;19.10;99.90
35692;DHT22;26978;44.830;-0.674;2023-04-24T15:18:42;19.20;99.90
35692;DHT22;26978;44.830;-0.674;2023-04-24T15:21:08;19.60;99.90
35692;DHT22;26978;44.830;-0.674;2023-04-24T15:23:34;20.50;97.80
35692;DHT22;26978;44.830;-0.674;2023-04-24T15:26:00;20.60;96.20
35692;DHT22;26978;44.830;-0.674;2023-04-24T15:28:26;20.00;98.30
35692;DHT22;26978;44.830;-0.674;2023-04-24T15:30:52;19.60;98.60
35692;DHT22;26978;44.830;-0.674;2023-04-24T15:33:17;19.40;99.90
35692;DHT22;26978;44.830;-0.674;2023-04-24T15:35:43;19.20;99.90
35692;DHT22;26978;44.830;-0.674;2023-04-24T15:38:08;19.10;99.90